sensor_id;sensor_type;location;lat;lon;timestamp;P1;durP1;ratioP1;P2;durP2;ratioP2
14472;SDS011;7322;50.872;4.386;2023-04-25T00:00:05;3.20;;;1.73;;
14472;SDS011;7322;50.872;4.386;2023-04-25T00:02:34;2.60;;;1.90;;
14472;SDS011;7322;50.872;4.386;2023-04-25T00:05:01;3.60;;;1.90;;
14472;SDS011;7322;50.872;4.386;2023-04-25T00:07:29;3.20;;;1.57;;
14472;SDS011;7322;50.872;4.386;2023-04-25T00:09:57;2.63;;;1.87;;
14472;SDS011;7322;50.872;4.386;2023-04-25T00:12:26;2.93;;;1.70;;
14472;SDS011;7322;50.872;4.386;2023-04-25T00:14:53;4.50;;;1.90;;
14472;SDS011;7322;50.872;4.386;2023-04-25T00:17:21;3.77;;;1.97;;
14472;SDS011;7322;50.872;4.386;2023-04-25T00:19:51;3.67;;;2.00;;
14472;SDS011;7322;50.872;4.386;2023-04-25T00:22:18;3.23;;;1.93;;
14472;SDS011;7322;50.872;4.386;2023-04-25T00:24:45;4.37;;;1.77;;
14472;SDS011;7322;50.872;4.386;2023-04-25T00:27:12;4.50;;;1.97;;
14472;SDS011;7322;50.872;4.386;2023-04-25T00:29:41;4.87;;;2.30;;
14472;SDS011;7322;50.872;4.386;2023-04-25T00:32:08;3.23;;;1.93;;
14472;SDS011;7322;50.872;4.386;2023-04-25T00:34:35;3.60;;;1.93;;
14472;SDS011;7322;50.872;4.386;2023-04-25T00:37:02;3.97;;;2.00;;
14472;SDS011;7322;50.872;4.386;2023-04-25T00:39:31;2.47;;;1.70;;
14472;SDS011;7322;50.872;4.386;2023-04-25T00:41:58;3.93;;;2.27;;
14472;SDS011;7322;50.872;4.386;2023-04-25T00:44:27;2.90;;;2.00;;
14472;SDS011;7322;50.872;4.386;2023-04-25T00:46:57;3.67;;;2.10;;
14472;SDS011;7322;50.872;4.386;2023-04-25T00:49:24;3.10;;;1.87;;
14472;SDS011;7322;50.872;4.386;2023-04-25T00:51:51;5.50;;;2.20;;
14472;SDS011;7322;50.872;4.386;2023-04-25T00:54:18;3.37;;;1.93;;
14472;SDS011;7322;50.872;4.386;2023-04-25T00:56:45;3.67;;;2.20;;
14472;SDS011;7322;50.872;4.386;2023-04-25T00:59:12;3.23;;;1.97;;
14472;SDS011;7322;50.872;4.386;2023-04-25T01:01:41;4.23;;;2.17;;
14472;SDS011;7322;50.872;4.386;2023-04-25T01:04:11;3.37;;;2.00;;
14472;SDS011;7322;50.872;4.386;2023-04-25T01:06:39;2.63;;;2.00;;
14472;SDS011;7322;50.872;4.386;2023-04-25T01:09:06;3.63;;;1.97;;
14472;SDS011;7322;50.872;4.386;2023-04-25T01:11:34;3.33;;;1.80;;
14472;SDS011;7322;50.872;4.386;2023-04-25T01:14:01;3.70;;;2.00;;
14472;SDS011;7322;50.872;4.386;2023-04-25T01:16:28;2.87;;;1.80;;
14472;SDS011;7322;50.872;4.386;2023-04-25T01:18:56;3.93;;;1.97;;
14472;SDS011;7322;50.872;4.386;2023-04-25T01:21:27;3.93;;;2.03;;
14472;SDS011;7322;50.872;4.386;2023-04-25T01:23:55;3.60;;;2.10;;
14472;SDS011;7322;50.872;4.386;2023-04-25T01:26:25;3.93;;;1.90;;
14472;SDS011;7322;50.872;4.386;2023-04-25T01:28:53;3.87;;;2.00;;
14472;SDS011;7322;50.872;4.386;2023-04-25T01:31:20;3.30;;;1.60;;
14472;SDS011;7322;50.872;4.386;2023-04-25T01:33:48;5.27;;;2.20;;
14472;SDS011;7322;50.872;4.386;2023-04-25T01:36:15;3.63;;;1.97;;
14472;SDS011;7322;50.872;4.386;2023-04-25T01:38:43;3.70;;;1.87;;
14472;SDS011;7322;50.872;4.386;2023-04-25T01:41:12;3.77;;;1.90;;
14472;SDS011;7322;50.872;4.386;2023-04-25T01:43:39;2.60;;;1.80;;
14472;SDS011;7322;50.872;4.386;2023-04-25T01:46:06;4.10;;;2.00;;
14472;SDS011;7322;50.872;4.386;2023-04-25T01:48:33;5.23;;;2.30;;
14472;SDS011;7322;50.872;4.386;2023-04-25T01:51:02;3.43;;;1.87;;
14472;SDS011;7322;50.872;4.386;2023-04-25T01:53:30;4.87;;;2.10;;
14472;SDS011;7322;50.872;4.386;2023-04-25T01:56:03;3.93;;;2.17;;
14472;SDS011;7322;50.872;4.386;2023-04-25T01:58:31;4.90;;;2.27;;
14472;SDS011;7322;50.872;4.386;2023-04-25T02:00:59;3.67;;;2.03;;
14472;SDS011;7322;50.872;4.386;2023-04-25T02:03:26;4.43;;;2.17;;
14472;SDS011;7322;50.872;4.386;2023-04-25T02:05:54;3.73;;;2.20;;
14472;SDS011;7322;50.872;4.386;2023-04-25T02:08:21;4.20;;;2.30;;
14472;SDS011;7322;50.872;4.386;2023-04-25T02:10:48;5.30;;;2.00;;
14472;SDS011;7322;50.872;4.386;2023-04-25T02:13:16;4.90;;;2.50;;
14472;SDS011;7322;50.872;4.386;2023-04-25T02:15:43;3.53;;;2.10;;
14472;SDS011;7322;50.872;4.386;2023-04-25T02:18:10;3.47;;;2.03;;
14472;SDS011;7322;50.872;4.386;2023-04-25T02:20:38;3.83;;;2.00;;
14472;SDS011;7322;50.872;4.386;2023-04-25T02:23:05;3.70;;;1.83;;
14472;SDS011;7322;50.872;4.386;2023-04-25T02:25:32;4.37;;;2.10;;
14472;SDS011;7322;50.872;4.386;2023-04-25T02:27:59;3.47;;;2.00;;
14472;SDS011;7322;50.872;4.386;2023-04-25T02:30:28;3.23;;;1.90;;
14472;SDS011;7322;50.872;4.386;2023-04-25T02:32:56;3.00;;;2.03;;
14472;SDS011;7322;50.872;4.386;2023-04-25T02:35:23;5.17;;;2.50;;
14472;SDS011;7322;50.872;4.386;2023-04-25T02:37:51;3.33;;;1.90;;
14472;SDS011;7322;50.872;4.386;2023-04-25T02:40:18;3.67;;;2.00;;
14472;SDS011;7322;50.872;4.386;2023-04-25T02:42:45;4.33;;;2.07;;
14472;SDS011;7322;50.872;4.386;2023-04-25T02:45:12;4.00;;;2.03;;
14472;SDS011;7322;50.872;4.386;2023-04-25T02:47:41;2.57;;;1.80;;
14472;SDS011;7322;50.872;4.386;2023-04-25T02:50:08;3.73;;;1.80;;
14472;SDS011;7322;50.872;4.386;2023-04-25T02:52:35;3.70;;;2.00;;
14472;SDS011;7322;50.872;4.386;2023-04-25T02:55:02;4.93;;;2.00;;
14472;SDS011;7322;50.872;4.386;2023-04-25T02:57:30;4.77;;;2.20;;
14472;SDS011;7322;50.872;4.386;2023-04-25T02:59:59;4.70;;;2.00;;
14472;SDS011;7322;50.872;4.386;2023-04-25T03:02:26;5.13;;;2.33;;
14472;SDS011;7322;50.872;4.386;2023-04-25T03:04:54;4.20;;;2.17;;
14472;SDS011;7322;50.872;4.386;2023-04-25T03:07:21;4.43;;;2.07;;
14472;SDS011;7322;50.872;4.386;2023-04-25T03:09:48;4.33;;;2.30;;
14472;SDS011;7322;50.872;4.386;2023-04-25T03:12:15;3.90;;;2.27;;
14472;SDS011;7322;50.872;4.386;2023-04-25T03:14:42;4.13;;;2.10;;
14472;SDS011;7322;50.872;4.386;2023-04-25T03:17:09;6.30;;;2.20;;
14472;SDS011;7322;50.872;4.386;2023-04-25T03:19:36;2.97;;;2.07;;
14472;SDS011;7322;50.872;4.386;2023-04-25T03:22:08;4.50;;;2.17;;
14472;SDS011;7322;50.872;4.386;2023-04-25T03:24:35;3.60;;;1.93;;
14472;SDS011;7322;50.872;4.386;2023-04-25T03:27:02;2.93;;;2.03;;
14472;SDS011;7322;50.872;4.386;2023-04-25T03:29:29;4.47;;;2.13;;
14472;SDS011;7322;50.872;4.386;2023-04-25T03:31:58;4.07;;;2.20;;
14472;SDS011;7322;50.872;4.386;2023-04-25T03:34:25;4.23;;;2.40;;
14472;SDS011;7322;50.872;4.386;2023-04-25T03:36:53;4.43;;;2.03;;
14472;SDS011;7322;50.872;4.386;2023-04-25T03:39:21;4.77;;;2.40;;
14472;SDS011;7322;50.872;4.386;2023-04-25T03:41:48;5.27;;;2.07;;
14472;SDS011;7322;50.872;4.386;2023-04-25T03:44:15;4.67;;;2.00;;
14472;SDS011;7322;50.872;4.386;2023-04-25T03:46:42;4.10;;;2.17;;
14472;SDS011;7322;50.872;4.386;2023-04-25T03:49:09;3.93;;;2.13;;
14472;SDS011;7322;50.872;4.386;2023-04-25T03:51:36;4.10;;;2.13;;
14472;SDS011;7322;50.872;4.386;2023-04-25T03:54:03;4.33;;;2.20;;
14472;SDS011;7322;50.872;4.386;2023-04-25T03:56:32;3.10;;;1.90;;
14472;SDS011;7322;50.872;4.386;2023-04-25T03:58:59;4.77;;;2.23;;
14472;SDS011;7322;50.872;4.386;2023-04-25T04:01:27;4.20;;;2.43;;
14472;SDS011;7322;50.872;4.386;2023-04-25T04:03:54;4.83;;;2.30;;
14472;SDS011;7322;50.872;4.386;2023-04-25T04:06:21;3.37;;;2.23;;
14472;SDS011;7322;50.872;4.386;2023-04-25T04:08:48;4.63;;;2.03;;
14472;SDS011;7322;50.872;4.386;2023-04-25T04:11:15;5.53;;;2.00;;
14472;SDS011;7322;50.872;4.386;2023-04-25T04:13:43;4.77;;;2.20;;
14472;SDS011;7322;50.872;4.386;2023-04-25T04:16:10;3.40;;;2.13;;
14472;SDS011;7322;50.872;4.386;2023-04-25T04:18:37;4.43;;;2.03;;
14472;SDS011;7322;50.872;4.386;2023-04-25T04:21:04;4.33;;;2.20;;
14472;SDS011;7322;50.872;4.386;2023-04-25T04:23:31;4.27;;;2.20;;
14472;SDS011;7322;50.872;4.386;2023-04-25T04:25:58;3.93;;;2.00;;
14472;SDS011;7322;50.872;4.386;2023-04-25T04:28:26;4.03;;;1.90;;
14472;SDS011;7322;50.872;4.386;2023-04-25T04:30:54;3.70;;;2.10;;
14472;SDS011;7322;50.872;4.386;2023-04-25T04:33:21;5.93;;;2.70;;
14472;SDS011;7322;50.872;4.386;2023-04-25T04:35:48;4.97;;;2.20;;
14472;SDS011;7322;50.872;4.386;2023-04-25T04:38:17;4.03;;;2.00;;
14472;SDS011;7322;50.872;4.386;2023-04-25T04:40:44;3.07;;;1.80;;
14472;SDS011;7322;50.872;4.386;2023-04-25T04:43:12;4.03;;;2.17;;
14472;SDS011;7322;50.872;4.386;2023-04-25T04:45:42;4.13;;;2.10;;
14472;SDS011;7322;50.872;4.386;2023-04-25T04:48:11;3.37;;;1.80;;
14472;SDS011;7322;50.872;4.386;2023-04-25T04:50:39;3.50;;;1.80;;
14472;SDS011;7322;50.872;4.386;2023-04-25T04:53:06;3.57;;;2.10;;
14472;SDS011;7322;50.872;4.386;2023-04-25T04:55:34;6.33;;;2.53;;
14472;SDS011;7322;50.872;4.386;2023-04-25T04:58:02;5.17;;;2.10;;
14472;SDS011;7322;50.872;4.386;2023-04-25T05:00:29;4.33;;;2.07;;
14472;SDS011;7322;50.872;4.386;2023-04-25T05:02:57;6.23;;;2.50;;
14472;SDS011;7322;50.872;4.386;2023-04-25T05:05:25;4.60;;;2.17;;
14472;SDS011;7322;50.872;4.386;2023-04-25T05:07:52;4.33;;;1.90;;
14472;SDS011;7322;50.872;4.386;2023-04-25T05:10:19;3.10;;;1.90;;
14472;SDS011;7322;50.872;4.386;2023-04-25T05:12:46;3.37;;;1.80;;
14472;SDS011;7322;50.872;4.386;2023-04-25T05:15:13;3.60;;;2.20;;
14472;SDS011;7322;50.872;4.386;2023-04-25T05:17:40;3.47;;;2.07;;
14472;SDS011;7322;50.872;4.386;2023-04-25T05:20:08;5.07;;;2.03;;
14472;SDS011;7322;50.872;4.386;2023-04-25T05:22:36;4.30;;;2.10;;
14472;SDS011;7322;50.872;4.386;2023-04-25T05:25:04;1.80;;;1.60;;
14472;SDS011;7322;50.872;4.386;2023-04-25T05:27:32;4.00;;;1.80;;
14472;SDS011;7322;50.872;4.386;2023-04-25T05:29:58;4.97;;;2.20;;
14472;SDS011;7322;50.872;4.386;2023-04-25T05:32:25;3.27;;;1.77;;
14472;SDS011;7322;50.872;4.386;2023-04-25T05:34:52;2.17;;;1.60;;
14472;SDS011;7322;50.872;4.386;2023-04-25T05:37:20;3.07;;;1.67;;
14472;SDS011;7322;50.872;4.386;2023-04-25T05:39:48;3.07;;;1.73;;
14472;SDS011;7322;50.872;4.386;2023-04-25T05:42:15;3.47;;;1.90;;
14472;SDS011;7322;50.872;4.386;2023-04-25T05:44:42;3.70;;;1.80;;
14472;SDS011;7322;50.872;4.386;2023-04-25T05:47:09;4.43;;;1.80;;
14472;SDS011;7322;50.872;4.386;2023-04-25T05:49:36;3.90;;;1.60;;
14472;SDS011;7322;50.872;4.386;2023-04-25T05:52:03;4.13;;;1.90;;
14472;SDS011;7322;50.872;4.386;2023-04-25T05:54:30;3.70;;;1.90;;
14472;SDS011;7322;50.872;4.386;2023-04-25T05:56:58;3.70;;;1.80;;
14472;SDS011;7322;50.872;4.386;2023-04-25T05:59:26;4.10;;;1.80;;
14472;SDS011;7322;50.872;4.386;2023-04-25T06:01:55;3.17;;;1.60;;
14472;SDS011;7322;50.872;4.386;2023-04-25T06:04:23;4.13;;;1.80;;
14472;SDS011;7322;50.872;4.386;2023-04-25T06:06:51;4.47;;;2.00;;
14472;SDS011;7322;50.872;4.386;2023-04-25T06:09:19;3.07;;;1.80;;
14472;SDS011;7322;50.872;4.386;2023-04-25T06:14:23;3.47;;;1.53;;
14472;SDS011;7322;50.872;4.386;2023-04-25T06:16:51;3.33;;;1.80;;
14472;SDS011;7322;50.872;4.386;2023-04-25T06:19:19;4.30;;;1.90;;
14472;SDS011;7322;50.872;4.386;2023-04-25T06:21:46;3.10;;;1.60;;
14472;SDS011;7322;50.872;4.386;2023-04-25T06:24:13;4.80;;;1.87;;
14472;SDS011;7322;50.872;4.386;2023-04-25T06:26:40;3.50;;;1.93;;
14472;SDS011;7322;50.872;4.386;2023-04-25T06:29:07;4.87;;;1.60;;
14472;SDS011;7322;50.872;4.386;2023-04-25T06:31:36;4.27;;;1.93;;
14472;SDS011;7322;50.872;4.386;2023-04-25T06:34:03;4.23;;;2.13;;
14472;SDS011;7322;50.872;4.386;2023-04-25T06:36:30;4.80;;;2.17;;
14472;SDS011;7322;50.872;4.386;2023-04-25T06:38:57;4.03;;;2.10;;
14472;SDS011;7322;50.872;4.386;2023-04-25T06:41:24;3.87;;;2.00;;
14472;SDS011;7322;50.872;4.386;2023-04-25T06:43:51;2.87;;;1.93;;
14472;SDS011;7322;50.872;4.386;2023-04-25T06:46:19;4.53;;;2.20;;
14472;SDS011;7322;50.872;4.386;2023-04-25T06:48:47;5.27;;;2.10;;
14472;SDS011;7322;50.872;4.386;2023-04-25T06:51:15;3.47;;;1.70;;
14472;SDS011;7322;50.872;4.386;2023-04-25T06:56:24;5.70;;;2.37;;
14472;SDS011;7322;50.872;4.386;2023-04-25T06:58:57;4.13;;;1.90;;
14472;SDS011;7322;50.872;4.386;2023-04-25T07:04:05;3.37;;;1.87;;
14472;SDS011;7322;50.872;4.386;2023-04-25T07:06:40;5.23;;;2.10;;
14472;SDS011;7322;50.872;4.386;2023-04-25T07:09:09;6.07;;;2.47;;
14472;SDS011;7322;50.872;4.386;2023-04-25T07:11:43;4.43;;;2.00;;
14472;SDS011;7322;50.872;4.386;2023-04-25T07:14:18;7.30;;;2.30;;
14472;SDS011;7322;50.872;4.386;2023-04-25T07:16:45;4.90;;;2.00;;
14472;SDS011;7322;50.872;4.386;2023-04-25T07:19:17;6.10;;;2.67;;
14472;SDS011;7322;50.872;4.386;2023-04-25T07:24:14;4.30;;;2.10;;
14472;SDS011;7322;50.872;4.386;2023-04-25T07:26:43;7.47;;;2.40;;
14472;SDS011;7322;50.872;4.386;2023-04-25T07:29:15;4.87;;;2.30;;
14472;SDS011;7322;50.872;4.386;2023-04-25T07:31:43;7.63;;;2.67;;
14472;SDS011;7322;50.872;4.386;2023-04-25T07:34:15;4.40;;;2.00;;
14472;SDS011;7322;50.872;4.386;2023-04-25T07:36:58;5.77;;;2.23;;
14472;SDS011;7322;50.872;4.386;2023-04-25T07:42:13;6.70;;;2.40;;
14472;SDS011;7322;50.872;4.386;2023-04-25T07:44:40;6.57;;;2.37;;
14472;SDS011;7322;50.872;4.386;2023-04-25T07:47:07;6.73;;;2.37;;
14472;SDS011;7322;50.872;4.386;2023-04-25T07:49:36;7.03;;;2.20;;
14472;SDS011;7322;50.872;4.386;2023-04-25T07:52:04;4.20;;;2.13;;
14472;SDS011;7322;50.872;4.386;2023-04-25T07:54:33;5.00;;;2.00;;
14472;SDS011;7322;50.872;4.386;2023-04-25T07:57:08;6.73;;;2.33;;
14472;SDS011;7322;50.872;4.386;2023-04-25T08:02:45;5.47;;;2.00;;
14472;SDS011;7322;50.872;4.386;2023-04-25T08:05:13;6.17;;;2.40;;
14472;SDS011;7322;50.872;4.386;2023-04-25T08:13:27;6.83;;;2.20;;
14472;SDS011;7322;50.872;4.386;2023-04-25T08:16:01;3.63;;;1.97;;
14472;SDS011;7322;50.872;4.386;2023-04-25T08:18:36;5.30;;;2.40;;
14472;SDS011;7322;50.872;4.386;2023-04-25T08:26:42;4.50;;;1.97;;
14472;SDS011;7322;50.872;4.386;2023-04-25T08:29:19;4.57;;;2.07;;
14472;SDS011;7322;50.872;4.386;2023-04-25T08:31:49;5.60;;;2.40;;
14472;SDS011;7322;50.872;4.386;2023-04-25T08:34:18;6.07;;;1.83;;
14472;SDS011;7322;50.872;4.386;2023-04-25T08:36:47;6.63;;;2.50;;
14472;SDS011;7322;50.872;4.386;2023-04-25T08:39:15;5.77;;;2.30;;
14472;SDS011;7322;50.872;4.386;2023-04-25T08:41:55;5.87;;;2.17;;
14472;SDS011;7322;50.872;4.386;2023-04-25T08:44:23;4.13;;;1.93;;
14472;SDS011;7322;50.872;4.386;2023-04-25T08:46:51;4.03;;;1.80;;
14472;SDS011;7322;50.872;4.386;2023-04-25T08:49:22;4.53;;;1.90;;
14472;SDS011;7322;50.872;4.386;2023-04-25T08:51:51;3.67;;;1.80;;
14472;SDS011;7322;50.872;4.386;2023-04-25T08:54:24;4.50;;;1.90;;
14472;SDS011;7322;50.872;4.386;2023-04-25T08:57:02;6.73;;;2.03;;
14472;SDS011;7322;50.872;4.386;2023-04-25T08:59:32;5.67;;;1.97;;
14472;SDS011;7322;50.872;4.386;2023-04-25T09:02:01;5.60;;;1.93;;
14472;SDS011;7322;50.872;4.386;2023-04-25T09:04:35;4.13;;;1.73;;
14472;SDS011;7322;50.872;4.386;2023-04-25T09:07:03;3.80;;;1.70;;
14472;SDS011;7322;50.872;4.386;2023-04-25T09:09:33;3.93;;;2.03;;
14472;SDS011;7322;50.872;4.386;2023-04-25T09:12:01;6.03;;;2.00;;
14472;SDS011;7322;50.872;4.386;2023-04-25T09:14:28;6.37;;;2.50;;
14472;SDS011;7322;50.872;4.386;2023-04-25T09:17:01;4.10;;;1.83;;
14472;SDS011;7322;50.872;4.386;2023-04-25T09:19:30;6.30;;;2.10;;
14472;SDS011;7322;50.872;4.386;2023-04-25T09:22:01;5.33;;;2.10;;
14472;SDS011;7322;50.872;4.386;2023-04-25T09:24:31;4.77;;;2.10;;
14472;SDS011;7322;50.872;4.386;2023-04-25T09:27:03;3.60;;;2.03;;
14472;SDS011;7322;50.872;4.386;2023-04-25T09:29:31;3.77;;;2.00;;
14472;SDS011;7322;50.872;4.386;2023-04-25T09:32:10;4.70;;;2.00;;
14472;SDS011;7322;50.872;4.386;2023-04-25T09:34:47;4.60;;;2.07;;
14472;SDS011;7322;50.872;4.386;2023-04-25T09:37:20;3.60;;;1.90;;
14472;SDS011;7322;50.872;4.386;2023-04-25T09:45:54;3.73;;;2.17;;
14472;SDS011;7322;50.872;4.386;2023-04-25T09:48:25;4.10;;;1.83;;
14472;SDS011;7322;50.872;4.386;2023-04-25T09:51:06;4.67;;;1.90;;
14472;SDS011;7322;50.872;4.386;2023-04-25T09:53:47;4.07;;;1.70;;
14472;SDS011;7322;50.872;4.386;2023-04-25T09:59:02;4.30;;;1.67;;
14472;SDS011;7322;50.872;4.386;2023-04-25T10:04:06;5.97;;;2.50;;
14472;SDS011;7322;50.872;4.386;2023-04-25T10:06:39;3.33;;;1.83;;
14472;SDS011;7322;50.872;4.386;2023-04-25T10:09:11;5.70;;;2.20;;
14472;SDS011;7322;50.872;4.386;2023-04-25T10:11:41;5.50;;;2.40;;
14472;SDS011;7322;50.872;4.386;2023-04-25T10:14:09;5.20;;;2.00;;
14472;SDS011;7322;50.872;4.386;2023-04-25T10:16:45;4.03;;;2.10;;
14472;SDS011;7322;50.872;4.386;2023-04-25T10:19:14;5.00;;;2.17;;
14472;SDS011;7322;50.872;4.386;2023-04-25T10:21:45;4.07;;;1.97;;
14472;SDS011;7322;50.872;4.386;2023-04-25T10:24:23;4.33;;;1.80;;
14472;SDS011;7322;50.872;4.386;2023-04-25T10:27:08;4.80;;;1.80;;
14472;SDS011;7322;50.872;4.386;2023-04-25T10:29:39;3.40;;;1.90;;
14472;SDS011;7322;50.872;4.386;2023-04-25T10:32:10;4.20;;;1.83;;
14472;SDS011;7322;50.872;4.386;2023-04-25T10:34:38;8.17;;;2.10;;
14472;SDS011;7322;50.872;4.386;2023-04-25T10:37:13;3.57;;;1.77;;
14472;SDS011;7322;50.872;4.386;2023-04-25T10:39:42;6.17;;;2.10;;
14472;SDS011;7322;50.872;4.386;2023-04-25T10:42:12;4.50;;;2.27;;
14472;SDS011;7322;50.872;4.386;2023-04-25T10:44:40;5.47;;;1.80;;
14472;SDS011;7322;50.872;4.386;2023-04-25T10:47:07;3.43;;;1.90;;
14472;SDS011;7322;50.872;4.386;2023-04-25T10:49:43;3.93;;;2.10;;
14472;SDS011;7322;50.872;4.386;2023-04-25T10:52:16;7.63;;;2.20;;
14472;SDS011;7322;50.872;4.386;2023-04-25T10:57:39;4.67;;;2.07;;
14472;SDS011;7322;50.872;4.386;2023-04-25T11:02:43;6.00;;;1.73;;
14472;SDS011;7322;50.872;4.386;2023-04-25T11:05:15;5.47;;;1.90;;
14472;SDS011;7322;50.872;4.386;2023-04-25T11:07:49;4.53;;;1.90;;
14472;SDS011;7322;50.872;4.386;2023-04-25T11:10:19;5.63;;;2.00;;
14472;SDS011;7322;50.872;4.386;2023-04-25T11:12:46;3.37;;;1.67;;
14472;SDS011;7322;50.872;4.386;2023-04-25T11:15:13;4.73;;;1.77;;
14472;SDS011;7322;50.872;4.386;2023-04-25T11:17:40;5.13;;;2.17;;
14472;SDS011;7322;50.872;4.386;2023-04-25T11:20:10;3.83;;;2.10;;
14472;SDS011;7322;50.872;4.386;2023-04-25T11:22:38;5.17;;;2.10;;
14472;SDS011;7322;50.872;4.386;2023-04-25T11:25:08;2.60;;;1.80;;
14472;SDS011;7322;50.872;4.386;2023-04-25T11:27:50;4.73;;;1.87;;
14472;SDS011;7322;50.872;4.386;2023-04-25T11:30:18;4.03;;;1.70;;
14472;SDS011;7322;50.872;4.386;2023-04-25T11:32:46;4.00;;;1.80;;
14472;SDS011;7322;50.872;4.386;2023-04-25T11:35:14;4.10;;;1.80;;
14472;SDS011;7322;50.872;4.386;2023-04-25T11:37:41;5.17;;;1.70;;
14472;SDS011;7322;50.872;4.386;2023-04-25T11:40:10;3.77;;;1.77;;
14472;SDS011;7322;50.872;4.386;2023-04-25T11:42:38;2.73;;;1.73;;
14472;SDS011;7322;50.872;4.386;2023-04-25T11:45:10;4.07;;;1.87;;
14472;SDS011;7322;50.872;4.386;2023-04-25T11:47:37;4.17;;;1.83;;
14472;SDS011;7322;50.872;4.386;2023-04-25T11:50:05;3.73;;;1.83;;
14472;SDS011;7322;50.872;4.386;2023-04-25T11:52:39;4.57;;;1.90;;
14472;SDS011;7322;50.872;4.386;2023-04-25T11:55:18;4.83;;;1.73;;
14472;SDS011;7322;50.872;4.386;2023-04-25T12:00:32;6.57;;;2.00;;
14472;SDS011;7322;50.872;4.386;2023-04-25T12:03:09;3.67;;;1.70;;
14472;SDS011;7322;50.872;4.386;2023-04-25T12:05:36;4.77;;;2.10;;
14472;SDS011;7322;50.872;4.386;2023-04-25T12:11:21;3.13;;;1.73;;
14472;SDS011;7322;50.872;4.386;2023-04-25T12:13:51;3.50;;;1.87;;
14472;SDS011;7322;50.872;4.386;2023-04-25T12:16:20;3.87;;;1.90;;
14472;SDS011;7322;50.872;4.386;2023-04-25T12:18:47;3.37;;;1.97;;
14472;SDS011;7322;50.872;4.386;2023-04-25T12:21:20;4.70;;;1.63;;
14472;SDS011;7322;50.872;4.386;2023-04-25T12:23:48;3.57;;;1.60;;
14472;SDS011;7322;50.872;4.386;2023-04-25T12:26:17;4.50;;;1.70;;
14472;SDS011;7322;50.872;4.386;2023-04-25T12:28:45;3.37;;;1.67;;
14472;SDS011;7322;50.872;4.386;2023-04-25T12:31:14;4.10;;;1.83;;
14472;SDS011;7322;50.872;4.386;2023-04-25T12:33:44;4.20;;;1.50;;
14472;SDS011;7322;50.872;4.386;2023-04-25T12:36:13;3.77;;;1.83;;
14472;SDS011;7322;50.872;4.386;2023-04-25T12:38:42;5.17;;;1.47;;
14472;SDS011;7322;50.872;4.386;2023-04-25T12:41:10;3.40;;;1.47;;
14472;SDS011;7322;50.872;4.386;2023-04-25T12:43:39;3.27;;;1.77;;
14472;SDS011;7322;50.872;4.386;2023-04-25T12:46:18;2.80;;;1.70;;
14472;SDS011;7322;50.872;4.386;2023-04-25T12:48:53;5.70;;;1.67;;
14472;SDS011;7322;50.872;4.386;2023-04-25T12:51:24;3.03;;;1.50;;
14472;SDS011;7322;50.872;4.386;2023-04-25T12:53:52;3.93;;;1.67;;
14472;SDS011;7322;50.872;4.386;2023-04-25T12:56:20;4.47;;;1.77;;
14472;SDS011;7322;50.872;4.386;2023-04-25T12:58:54;3.07;;;1.30;;
14472;SDS011;7322;50.872;4.386;2023-04-25T13:01:22;3.87;;;1.40;;
14472;SDS011;7322;50.872;4.386;2023-04-25T13:04:02;3.43;;;1.67;;
14472;SDS011;7322;50.872;4.386;2023-04-25T13:06:32;3.00;;;1.50;;
14472;SDS011;7322;50.872;4.386;2023-04-25T13:11:36;3.53;;;1.50;;
14472;SDS011;7322;50.872;4.386;2023-04-25T13:14:04;3.37;;;1.60;;
14472;SDS011;7322;50.872;4.386;2023-04-25T13:16:32;3.97;;;1.57;;
14472;SDS011;7322;50.872;4.386;2023-04-25T13:19:07;3.73;;;1.60;;
14472;SDS011;7322;50.872;4.386;2023-04-25T13:21:36;3.47;;;1.60;;
14472;SDS011;7322;50.872;4.386;2023-04-25T13:24:04;2.80;;;1.67;;
14472;SDS011;7322;50.872;4.386;2023-04-25T13:26:32;3.13;;;1.53;;
14472;SDS011;7322;50.872;4.386;2023-04-25T13:31:58;3.20;;;1.37;;
14472;SDS011;7322;50.872;4.386;2023-04-25T13:34:36;3.93;;;1.43;;
14472;SDS011;7322;50.872;4.386;2023-04-25T13:37:06;4.57;;;1.50;;
14472;SDS011;7322;50.872;4.386;2023-04-25T13:39:34;2.57;;;1.40;;
14472;SDS011;7322;50.872;4.386;2023-04-25T13:42:04;3.53;;;1.60;;
14472;SDS011;7322;50.872;4.386;2023-04-25T13:44:32;3.30;;;1.30;;
14472;SDS011;7322;50.872;4.386;2023-04-25T13:47:00;2.40;;;1.33;;
14472;SDS011;7322;50.872;4.386;2023-04-25T13:49:29;2.97;;;1.40;;
14472;SDS011;7322;50.872;4.386;2023-04-25T13:57:55;4.40;;;1.70;;
14472;SDS011;7322;50.872;4.386;2023-04-25T14:00:35;3.10;;;1.73;;
14472;SDS011;7322;50.872;4.386;2023-04-25T14:03:05;2.77;;;1.20;;
14472;SDS011;7322;50.872;4.386;2023-04-25T14:05:47;3.17;;;1.60;;
14472;SDS011;7322;50.872;4.386;2023-04-25T14:08:24;2.40;;;1.47;;
14472;SDS011;7322;50.872;4.386;2023-04-25T14:19:50;2.03;;;1.20;;
14472;SDS011;7322;50.872;4.386;2023-04-25T14:22:23;4.43;;;1.20;;
14472;SDS011;7322;50.872;4.386;2023-04-25T14:24:50;2.60;;;1.33;;
14472;SDS011;7322;50.872;4.386;2023-04-25T14:42:32;2.80;;;1.50;;
14472;SDS011;7322;50.872;4.386;2023-04-25T14:48:02;2.63;;;1.27;;
14472;SDS011;7322;50.872;4.386;2023-04-25T14:50:31;3.27;;;1.40;;
14472;SDS011;7322;50.872;4.386;2023-04-25T15:01:44;4.70;;;1.67;;
14472;SDS011;7322;50.872;4.386;2023-04-25T15:04:13;3.87;;;1.33;;
14472;SDS011;7322;50.872;4.386;2023-04-25T15:09:34;3.57;;;1.30;;
14472;SDS011;7322;50.872;4.386;2023-04-25T15:12:15;2.93;;;1.57;;
14472;SDS011;7322;50.872;4.386;2023-04-25T15:14:52;2.23;;;1.30;;
14472;SDS011;7322;50.872;4.386;2023-04-25T15:17:36;2.93;;;1.40;;
14472;SDS011;7322;50.872;4.386;2023-04-25T15:20:16;4.10;;;1.50;;
14472;SDS011;7322;50.872;4.386;2023-04-25T15:22:45;3.30;;;1.23;;
14472;SDS011;7322;50.872;4.386;2023-04-25T15:25:14;2.60;;;1.37;;
14472;SDS011;7322;50.872;4.386;2023-04-25T15:28:00;2.47;;;1.50;;
14472;SDS011;7322;50.872;4.386;2023-04-25T15:30:28;3.60;;;1.30;;
14472;SDS011;7322;50.872;4.386;2023-04-25T15:35:49;4.17;;;1.60;;
14472;SDS011;7322;50.872;4.386;2023-04-25T15:38:29;2.10;;;1.03;;
14472;SDS011;7322;50.872;4.386;2023-04-25T15:43:38;6.53;;;1.60;;
14472;SDS011;7322;50.872;4.386;2023-04-25T15:49:04;3.50;;;1.40;;
14472;SDS011;7322;50.872;4.386;2023-04-25T15:54:18;2.60;;;1.13;;
14472;SDS011;7322;50.872;4.386;2023-04-25T15:56:53;2.90;;;1.30;;
14472;SDS011;7322;50.872;4.386;2023-04-25T15:59:22;2.47;;;1.43;;
14472;SDS011;7322;50.872;4.386;2023-04-25T16:01:54;3.40;;;1.20;;
14472;SDS011;7322;50.872;4.386;2023-04-25T16:04:41;4.20;;;1.57;;
14472;SDS011;7322;50.872;4.386;2023-04-25T16:09:42;3.80;;;1.70;;
14472;SDS011;7322;50.872;4.386;2023-04-25T16:12:12;3.93;;;2.10;;
14472;SDS011;7322;50.872;4.386;2023-04-25T16:14:40;3.20;;;2.03;;
14472;SDS011;7322;50.872;4.386;2023-04-25T16:20:02;5.13;;;3.10;;
14472;SDS011;7322;50.872;4.386;2023-04-25T16:22:34;5.47;;;3.43;;
14472;SDS011;7322;50.872;4.386;2023-04-25T16:28:28;5.67;;;4.00;;
14472;SDS011;7322;50.872;4.386;2023-04-25T16:31:07;7.97;;;4.50;;
14472;SDS011;7322;50.872;4.386;2023-04-25T16:33:34;6.60;;;4.37;;
14472;SDS011;7322;50.872;4.386;2023-04-25T16:44:51;5.83;;;4.40;;
14472;SDS011;7322;50.872;4.386;2023-04-25T16:49:55;6.50;;;4.17;;
14472;SDS011;7322;50.872;4.386;2023-04-25T16:55:17;5.00;;;4.40;;
14472;SDS011;7322;50.872;4.386;2023-04-25T16:57:46;6.60;;;4.30;;
14472;SDS011;7322;50.872;4.386;2023-04-25T17:00:14;5.37;;;4.20;;
14472;SDS011;7322;50.872;4.386;2023-04-25T17:02:43;7.13;;;4.50;;
14472;SDS011;7322;50.872;4.386;2023-04-25T17:05:19;8.00;;;4.50;;
14472;SDS011;7322;50.872;4.386;2023-04-25T17:07:59;6.53;;;4.40;;
14472;SDS011;7322;50.872;4.386;2023-04-25T17:10:34;7.13;;;4.70;;
14472;SDS011;7322;50.872;4.386;2023-04-25T17:13:01;6.33;;;4.43;;
14472;SDS011;7322;50.872;4.386;2023-04-25T17:15:42;7.27;;;4.80;;
14472;SDS011;7322;50.872;4.386;2023-04-25T17:21:18;6.17;;;4.73;;
14472;SDS011;7322;50.872;4.386;2023-04-25T17:23:55;8.00;;;4.90;;
14472;SDS011;7322;50.872;4.386;2023-04-25T17:34:51;8.60;;;4.77;;
14472;SDS011;7322;50.872;4.386;2023-04-25T17:37:27;8.67;;;4.57;;
14472;SDS011;7322;50.872;4.386;2023-04-25T17:48:26;5.53;;;3.97;;